GTI6075 KMIA-KATL
Flight info
| Callsign | GTI6075 |
|---|---|
| Flight time | 1h 28m |
| Altitude | 36000 |
| Route | FLMGO2 STYMY Q77 SHRKS LAIRI LARZZ JJEDI3 |
| Aircraft | B748/H-SDE3FGHIM1M2RWXY/LB1 |
Departure
| Time | 2026-05-07 16:33 |
|---|---|
| Airport | Miami International Airport (KMIA) |
Arrival
| Time | 2026-05-07 18:01 |
|---|---|
| Airport | Hartsfield Jackson Atlanta International Airport (KATL) |
| Time | Latitude | Longitude | Altitude | Speed | Heading |
|---|---|---|---|---|---|
| 2026-05-07 16:04 | 25.79239 | -80.30637 | 25 ft | 0 kts | 313° |
| 2026-05-07 16:15 | 25.79234 | -80.30631 | 25 ft | 4 kts | 315° |
| 2026-05-07 16:16 | 25.79214 | -80.30611 | 26 ft | 4 kts | 323° |
| 2026-05-07 16:16 | 25.79191 | -80.30594 | 30 ft | 4 kts | 332° |
| 2026-05-07 16:16 | 25.79166 | -80.30582 | 30 ft | 4 kts | 342° |
| 2026-05-07 16:16 | 25.79141 | -80.30575 | 30 ft | 4 kts | 355° |
| 2026-05-07 16:17 | 25.79117 | -80.30575 | 30 ft | 4 kts | 12° |
| 2026-05-07 16:17 | 25.79093 | -80.30586 | 30 ft | 4 kts | 42° |
| 2026-05-07 16:17 | 25.79076 | -80.30609 | 30 ft | 4 kts | 65° |
| 2026-05-07 16:17 | 25.79069 | -80.30634 | 30 ft | 0 kts | 83° |
| 2026-05-07 16:19 | 25.79069 | -80.30633 | 30 ft | 0 kts | 83° |
| 2026-05-07 16:23 | 25.79069 | -80.30631 | 30 ft | 1 kts | 83° |
| 2026-05-07 16:24 | 25.79062 | -80.30591 | 30 ft | 8 kts | 117° |
| 2026-05-07 16:24 | 25.79012 | -80.30563 | 28 ft | 9 kts | 171° |
| 2026-05-07 16:24 | 25.78943 | -80.30561 | 28 ft | 13 kts | 178° |
| 2026-05-07 16:24 | 25.78876 | -80.30549 | 27 ft | 16 kts | 156° |
| 2026-05-07 16:25 | 25.78847 | -80.30493 | 29 ft | 7 kts | 85° |
| 2026-05-07 16:25 | 25.78850 | -80.30407 | 25 ft | 14 kts | 88° |
| 2026-05-07 16:25 | 25.78853 | -80.30282 | 27 ft | 19 kts | 87° |
| 2026-05-07 16:25 | 25.78860 | -80.30114 | 28 ft | 22 kts | 87° |
| 2026-05-07 16:26 | 25.78866 | -80.29970 | 25 ft | 18 kts | 86° |
| 2026-05-07 16:26 | 25.78872 | -80.29826 | 27 ft | 19 kts | 86° |
| 2026-05-07 16:26 | 25.78878 | -80.29695 | 25 ft | 11 kts | 87° |
| 2026-05-07 16:26 | 25.78883 | -80.29584 | 25 ft | 19 kts | 87° |
| 2026-05-07 16:27 | 25.78890 | -80.29411 | 27 ft | 26 kts | 88° |
| 2026-05-07 16:27 | 25.78896 | -80.29203 | 28 ft | 27 kts | 88° |
| 2026-05-07 16:27 | 25.78916 | -80.29000 | 28 ft | 26 kts | 77° |
| 2026-05-07 16:27 | 25.78939 | -80.28801 | 27 ft | 25 kts | 98° |
| 2026-05-07 16:28 | 25.78947 | -80.28715 | 27 ft | 3 kts | 46° |
| 2026-05-07 16:28 | 25.78977 | -80.28697 | 27 ft | 7 kts | 19° |
| 2026-05-07 16:28 | 25.79043 | -80.28693 | 27 ft | 13 kts | 358° |
| 2026-05-07 16:28 | 25.79168 | -80.28698 | 28 ft | 21 kts | 358° |
| 2026-05-07 16:29 | 25.79284 | -80.28725 | 28 ft | 11 kts | 316° |
| 2026-05-07 16:29 | 25.79325 | -80.28809 | 30 ft | 16 kts | 298° |
| 2026-05-07 16:29 | 25.79395 | -80.28944 | 29 ft | 24 kts | 300° |
| 2026-05-07 16:29 | 25.79485 | -80.29120 | 30 ft | 27 kts | 300° |
| 2026-05-07 16:30 | 25.79580 | -80.29305 | 31 ft | 28 kts | 299° |
| 2026-05-07 16:30 | 25.79678 | -80.29499 | 30 ft | 29 kts | 300° |
| 2026-05-07 16:30 | 25.79781 | -80.29697 | 30 ft | 30 kts | 299° |
| 2026-05-07 16:30 | 25.79870 | -80.29873 | 27 ft | 27 kts | 300° |
| 2026-05-07 16:31 | 25.79963 | -80.30058 | 27 ft | 28 kts | 301° |
| 2026-05-07 16:31 | 25.80057 | -80.30118 | 27 ft | 8 kts | 31° |
| 2026-05-07 16:31 | 25.80077 | -80.30062 | 27 ft | 11 kts | 88° |
| 2026-05-07 16:31 | 25.80077 | -80.29985 | 26 ft | 8 kts | 86° |
| 2026-05-07 16:32 | 25.80078 | -80.29978 | 26 ft | 0 kts | 86° |
| 2026-05-07 16:32 | 25.80078 | -80.29965 | 27 ft | 6 kts | 86° |
| 2026-05-07 16:32 | 25.80096 | -80.29585 | 24 ft | 97 kts | 87° |
| 2026-05-07 16:33 | 25.80148 | -80.28550 | 127 ft | 161 kts | 87° |
| 2026-05-07 16:33 | 25.80238 | -80.27254 | 822 ft | 168 kts | 89° |
| 2026-05-07 16:33 | 25.80282 | -80.25941 | 1687 ft | 177 kts | 89° |
| 2026-05-07 16:33 | 25.80343 | -80.24532 | 2283 ft | 190 kts | 89° |
| 2026-05-07 16:34 | 25.80396 | -80.22993 | 2757 ft | 209 kts | 89° |
| 2026-05-07 16:34 | 25.80455 | -80.21317 | 3286 ft | 226 kts | 88° |
| 2026-05-07 16:34 | 25.80523 | -80.19519 | 3957 ft | 242 kts | 88° |
| 2026-05-07 16:34 | 25.80897 | -80.17623 | 4768 ft | 264 kts | 63° |
| 2026-05-07 16:35 | 25.82126 | -80.16062 | 5763 ft | 275 kts | 34° |
| 2026-05-07 16:35 | 25.83918 | -80.15330 | 6912 ft | 280 kts | 6° |
| 2026-05-07 16:35 | 25.85872 | -80.15442 | 8039 ft | 285 kts | 353° |
| 2026-05-07 16:35 | 25.87867 | -80.15740 | 9127 ft | 290 kts | 355° |
| 2026-05-07 16:36 | 25.89890 | -80.16007 | 10207 ft | 297 kts | 350° |
| 2026-05-07 16:36 | 25.91943 | -80.16549 | 11010 ft | 312 kts | 345° |
| 2026-05-07 16:36 | 25.94079 | -80.17304 | 11652 ft | 331 kts | 341° |
| 2026-05-07 16:36 | 25.96290 | -80.18147 | 12261 ft | 350 kts | 342° |
| 2026-05-07 16:37 | 25.98614 | -80.19101 | 13143 ft | 359 kts | 332° |
| 2026-05-07 16:37 | 26.00674 | -80.20699 | 14127 ft | 364 kts | 320° |
| 2026-05-07 16:37 | 26.02555 | -80.22604 | 15080 ft | 367 kts | 316° |
| 2026-05-07 16:37 | 26.04403 | -80.24584 | 16009 ft | 371 kts | 317° |
| 2026-05-07 16:38 | 26.06336 | -80.26507 | 16926 ft | 374 kts | 319° |
| 2026-05-07 16:38 | 26.08310 | -80.28404 | 17863 ft | 377 kts | 319° |
| 2026-05-07 16:38 | 26.10282 | -80.30350 | 18716 ft | 379 kts | 317° |
| 2026-05-07 16:38 | 26.12247 | -80.32329 | 19491 ft | 383 kts | 317° |
| 2026-05-07 16:39 | 26.14235 | -80.34317 | 20235 ft | 386 kts | 317° |
| 2026-05-07 16:39 | 26.16229 | -80.36289 | 20965 ft | 389 kts | 317° |
| 2026-05-07 16:39 | 26.18290 | -80.38333 | 21690 ft | 393 kts | 317° |
| 2026-05-07 16:39 | 26.20302 | -80.40342 | 22366 ft | 396 kts | 317° |
| 2026-05-07 16:40 | 26.22411 | -80.42347 | 23027 ft | 400 kts | 323° |
| 2026-05-07 16:40 | 26.24835 | -80.43913 | 23683 ft | 406 kts | 331° |
| 2026-05-07 16:40 | 26.27397 | -80.45278 | 24210 ft | 409 kts | 332° |
| 2026-05-07 16:40 | 26.29985 | -80.46643 | 24726 ft | 412 kts | 332° |
| 2026-05-07 16:41 | 26.32582 | -80.48018 | 25220 ft | 415 kts | 332° |
| 2026-05-07 16:41 | 26.35197 | -80.49413 | 25716 ft | 418 kts | 331° |
| 2026-05-07 16:41 | 26.37828 | -80.50815 | 26215 ft | 420 kts | 331° |
| 2026-05-07 16:41 | 26.40479 | -80.52224 | 26731 ft | 423 kts | 331° |
| 2026-05-07 16:42 | 26.43150 | -80.53644 | 27236 ft | 426 kts | 331° |
| 2026-05-07 16:42 | 26.45839 | -80.55077 | 27762 ft | 430 kts | 331° |
| 2026-05-07 16:42 | 26.48581 | -80.56455 | 28298 ft | 436 kts | 337° |
| 2026-05-07 16:42 | 26.51504 | -80.57441 | 28878 ft | 441 kts | 340° |
| 2026-05-07 16:43 | 26.54434 | -80.58369 | 29474 ft | 445 kts | 340° |
| 2026-05-07 16:43 | 26.57468 | -80.59326 | 30131 ft | 449 kts | 340° |
| 2026-05-07 16:43 | 26.60454 | -80.60275 | 30684 ft | 453 kts | 340° |
| 2026-05-07 16:43 | 26.63489 | -80.61242 | 31397 ft | 453 kts | 340° |
| 2026-05-07 16:44 | 26.66513 | -80.62201 | 32265 ft | 450 kts | 340° |
| 2026-05-07 16:44 | 26.69521 | -80.63156 | 33139 ft | 448 kts | 340° |
| 2026-05-07 16:44 | 26.72511 | -80.64109 | 34014 ft | 446 kts | 340° |
| 2026-05-07 16:44 | 26.75490 | -80.65058 | 34767 ft | 444 kts | 340° |
| 2026-05-07 16:45 | 26.78456 | -80.66003 | 35443 ft | 443 kts | 340° |
| 2026-05-07 16:45 | 26.81400 | -80.66941 | 35926 ft | 439 kts | 340° |
| 2026-05-07 16:45 | 26.84345 | -80.67880 | 36067 ft | 438 kts | 340° |
| 2026-05-07 16:46 | 26.90176 | -80.69741 | 36067 ft | 434 kts | 340° |
| 2026-05-07 16:46 | 26.95755 | -80.71800 | 36075 ft | 432 kts | 337° |
| 2026-05-07 16:47 | 27.00667 | -80.73646 | 36068 ft | 432 kts | 337° |
| 2026-05-07 16:47 | 27.06241 | -80.75759 | 36067 ft | 432 kts | 337° |
| 2026-05-07 16:48 | 27.11942 | -80.77917 | 36064 ft | 432 kts | 337° |
| 2026-05-07 16:48 | 27.17651 | -80.80082 | 36080 ft | 432 kts | 337° |
| 2026-05-07 16:49 | 27.23347 | -80.82244 | 36079 ft | 432 kts | 337° |
| 2026-05-07 16:49 | 27.29037 | -80.84406 | 36079 ft | 432 kts | 337° |
| 2026-05-07 16:50 | 27.34673 | -80.86647 | 36083 ft | 431 kts | 335° |
| 2026-05-07 16:50 | 27.40318 | -80.88935 | 36082 ft | 431 kts | 335° |
| 2026-05-07 16:51 | 27.45945 | -80.91262 | 36080 ft | 431 kts | 335° |
| 2026-05-07 16:51 | 27.51591 | -80.93582 | 36074 ft | 432 kts | 335° |
| 2026-05-07 16:52 | 27.57235 | -80.95911 | 36071 ft | 432 kts | 335° |
| 2026-05-07 16:52 | 27.62875 | -80.98238 | 36076 ft | 431 kts | 335° |
| 2026-05-07 16:53 | 27.68512 | -81.00566 | 36076 ft | 431 kts | 335° |
| 2026-05-07 16:53 | 27.74145 | -81.02896 | 36074 ft | 431 kts | 335° |
| 2026-05-07 16:54 | 27.79779 | -81.05228 | 36071 ft | 432 kts | 335° |
| 2026-05-07 16:54 | 27.85435 | -81.07574 | 36076 ft | 433 kts | 335° |
| 2026-05-07 16:55 | 27.91091 | -81.09920 | 36075 ft | 433 kts | 335° |
| 2026-05-07 16:55 | 27.96723 | -81.12260 | 36072 ft | 433 kts | 335° |
| 2026-05-07 16:56 | 28.02379 | -81.14612 | 36073 ft | 433 kts | 335° |
| 2026-05-07 16:56 | 28.10889 | -81.18044 | 36071 ft | 433 kts | 335° |
| 2026-05-07 16:57 | 28.16573 | -81.20341 | 36087 ft | 433 kts | 335° |
| 2026-05-07 16:57 | 28.22263 | -81.22631 | 36093 ft | 433 kts | 335° |
| 2026-05-07 16:58 | 28.27902 | -81.24905 | 36088 ft | 433 kts | 335° |
| 2026-05-07 16:58 | 28.33574 | -81.27197 | 36089 ft | 433 kts | 335° |
| 2026-05-07 16:59 | 28.39259 | -81.29494 | 36102 ft | 434 kts | 335° |
| 2026-05-07 16:59 | 28.44940 | -81.31794 | 36084 ft | 433 kts | 335° |
| 2026-05-07 17:00 | 28.50623 | -81.34097 | 36082 ft | 433 kts | 335° |
| 2026-05-07 17:00 | 28.56304 | -81.36401 | 36082 ft | 433 kts | 335° |
| 2026-05-07 17:01 | 28.61981 | -81.38707 | 36081 ft | 433 kts | 335° |
| 2026-05-07 17:01 | 28.67617 | -81.40998 | 36080 ft | 433 kts | 335° |
| 2026-05-07 17:02 | 28.73290 | -81.43307 | 36052 ft | 432 kts | 334° |
| 2026-05-07 17:02 | 28.78952 | -81.45616 | 36049 ft | 432 kts | 334° |
| 2026-05-07 17:03 | 28.84610 | -81.47923 | 36053 ft | 432 kts | 334° |
| 2026-05-07 17:03 | 28.90271 | -81.50237 | 36050 ft | 432 kts | 334° |
| 2026-05-07 17:04 | 28.95937 | -81.52553 | 36051 ft | 432 kts | 334° |
| 2026-05-07 17:04 | 29.01563 | -81.54856 | 36054 ft | 431 kts | 334° |
| 2026-05-07 17:05 | 29.07202 | -81.57169 | 36051 ft | 431 kts | 334° |
| 2026-05-07 17:05 | 29.12853 | -81.59487 | 36050 ft | 431 kts | 334° |
| 2026-05-07 17:06 | 29.18496 | -81.61806 | 36047 ft | 431 kts | 334° |
| 2026-05-07 17:06 | 29.24133 | -81.64125 | 36045 ft | 431 kts | 334° |
| 2026-05-07 17:07 | 29.29770 | -81.66445 | 36044 ft | 430 kts | 333° |
| 2026-05-07 17:07 | 29.35397 | -81.68767 | 36043 ft | 429 kts | 333° |
| 2026-05-07 17:08 | 29.40981 | -81.71071 | 36043 ft | 429 kts | 333° |
| 2026-05-07 17:08 | 29.46602 | -81.73395 | 36040 ft | 429 kts | 333° |
| 2026-05-07 17:09 | 29.52221 | -81.75720 | 36043 ft | 429 kts | 333° |
| 2026-05-07 17:09 | 29.56886 | -81.77652 | 36044 ft | 429 kts | 333° |
| 2026-05-07 17:10 | 29.62473 | -81.79966 | 36036 ft | 424 kts | 332° |
| 2026-05-07 17:10 | 29.68020 | -81.82273 | 36036 ft | 424 kts | 332° |
| 2026-05-07 17:11 | 29.73576 | -81.84581 | 36038 ft | 424 kts | 332° |
| 2026-05-07 17:11 | 29.79124 | -81.86890 | 36038 ft | 424 kts | 332° |
| 2026-05-07 17:12 | 29.84637 | -81.89187 | 36033 ft | 424 kts | 332° |
| 2026-05-07 17:12 | 29.90176 | -81.91496 | 36042 ft | 423 kts | 332° |
| 2026-05-07 17:13 | 29.95715 | -81.93811 | 36049 ft | 423 kts | 332° |
| 2026-05-07 17:13 | 30.01260 | -81.96128 | 36059 ft | 423 kts | 332° |
| 2026-05-07 17:14 | 30.06874 | -81.98235 | 36061 ft | 430 kts | 338° |
| 2026-05-07 17:14 | 30.12691 | -81.99718 | 36068 ft | 428 kts | 337° |
| 2026-05-07 17:15 | 30.18436 | -82.01533 | 36069 ft | 428 kts | 336° |
| 2026-05-07 17:15 | 30.24193 | -82.03186 | 36064 ft | 428 kts | 337° |
| 2026-05-07 17:16 | 30.29964 | -82.04921 | 36065 ft | 428 kts | 336° |
| 2026-05-07 17:16 | 30.35742 | -82.06629 | 36064 ft | 428 kts | 337° |
| 2026-05-07 17:17 | 30.41524 | -82.08351 | 36063 ft | 428 kts | 336° |
| 2026-05-07 17:17 | 30.47304 | -82.10072 | 36060 ft | 428 kts | 337° |
| 2026-05-07 17:18 | 30.53042 | -82.11782 | 36058 ft | 428 kts | 336° |
| 2026-05-07 17:18 | 30.58815 | -82.13506 | 36054 ft | 429 kts | 336° |
| 2026-05-07 17:19 | 30.64588 | -82.15230 | 36050 ft | 428 kts | 336° |
| 2026-05-07 17:19 | 30.70372 | -82.16962 | 36050 ft | 428 kts | 336° |
| 2026-05-07 17:20 | 30.76153 | -82.18693 | 36049 ft | 429 kts | 336° |
| 2026-05-07 17:20 | 30.81913 | -82.20421 | 36049 ft | 429 kts | 336° |
| 2026-05-07 17:21 | 30.87694 | -82.22158 | 36044 ft | 429 kts | 336° |
| 2026-05-07 17:21 | 30.93482 | -82.23898 | 36045 ft | 429 kts | 336° |
| 2026-05-07 17:22 | 30.99230 | -82.25629 | 36036 ft | 429 kts | 336° |
| 2026-05-07 17:22 | 31.05025 | -82.27378 | 36021 ft | 431 kts | 337° |
| 2026-05-07 17:23 | 31.10840 | -82.29130 | 36019 ft | 431 kts | 337° |
| 2026-05-07 17:23 | 31.16653 | -82.30888 | 36016 ft | 431 kts | 337° |
| 2026-05-07 17:24 | 31.22460 | -82.32645 | 36023 ft | 431 kts | 337° |
| 2026-05-07 17:24 | 31.28275 | -82.34407 | 36014 ft | 431 kts | 337° |
| 2026-05-07 17:25 | 31.34114 | -82.36180 | 36025 ft | 433 kts | 337° |
| 2026-05-07 17:25 | 31.39907 | -82.37938 | 36023 ft | 433 kts | 337° |
| 2026-05-07 17:26 | 31.45752 | -82.39717 | 36018 ft | 433 kts | 337° |
| 2026-05-07 17:26 | 31.51580 | -82.41491 | 36007 ft | 433 kts | 337° |
| 2026-05-07 17:27 | 31.57424 | -82.43274 | 35991 ft | 433 kts | 337° |
| 2026-05-07 17:27 | 31.63276 | -82.45061 | 35981 ft | 435 kts | 336° |
| 2026-05-07 17:28 | 31.69130 | -82.46850 | 35984 ft | 435 kts | 336° |
| 2026-05-07 17:28 | 31.74991 | -82.48645 | 35972 ft | 435 kts | 336° |
| 2026-05-07 17:29 | 31.80848 | -82.50440 | 35977 ft | 434 kts | 336° |
| 2026-05-07 17:29 | 31.86694 | -82.52234 | 35962 ft | 436 kts | 336° |
| 2026-05-07 17:30 | 31.92595 | -82.54049 | 35955 ft | 438 kts | 336° |
| 2026-05-07 17:30 | 31.98139 | -82.56491 | 35979 ft | 418 kts | 318° |
| 2026-05-07 17:31 | 32.02388 | -82.60956 | 35957 ft | 406 kts | 307° |
| 2026-05-07 17:31 | 32.06428 | -82.65647 | 35979 ft | 411 kts | 312° |
| 2026-05-07 17:32 | 32.10875 | -82.69930 | 35980 ft | 411 kts | 311° |
| 2026-05-07 17:32 | 32.15123 | -82.74390 | 35984 ft | 408 kts | 311° |
| 2026-05-07 17:33 | 32.19426 | -82.78744 | 35553 ft | 406 kts | 310° |
| 2026-05-07 17:33 | 32.21523 | -82.80900 | 35074 ft | 407 kts | 310° |
| 2026-05-07 17:33 | 32.23671 | -82.83117 | 34633 ft | 409 kts | 311° |
| 2026-05-07 17:34 | 32.25828 | -82.85329 | 34160 ft | 411 kts | 311° |
| 2026-05-07 17:34 | 32.28001 | -82.87554 | 33666 ft | 415 kts | 311° |
| 2026-05-07 17:34 | 32.30196 | -82.89808 | 33169 ft | 418 kts | 311° |
| 2026-05-07 17:34 | 32.32382 | -82.92054 | 32688 ft | 415 kts | 311° |
| 2026-05-07 17:35 | 32.34550 | -82.94280 | 32195 ft | 410 kts | 311° |
| 2026-05-07 17:35 | 32.36691 | -82.96484 | 31698 ft | 406 kts | 311° |
| 2026-05-07 17:35 | 32.38811 | -82.98669 | 31162 ft | 404 kts | 311° |
| 2026-05-07 17:35 | 32.40929 | -83.00848 | 30591 ft | 401 kts | 312° |
| 2026-05-07 17:36 | 32.43026 | -83.02999 | 30098 ft | 396 kts | 311° |
| 2026-05-07 17:36 | 32.45095 | -83.05126 | 29501 ft | 392 kts | 311° |
| 2026-05-07 17:36 | 32.47136 | -83.07232 | 28979 ft | 387 kts | 311° |
| 2026-05-07 17:36 | 32.49157 | -83.09316 | 28480 ft | 382 kts | 311° |
| 2026-05-07 17:37 | 32.51152 | -83.11373 | 27974 ft | 377 kts | 310° |
| 2026-05-07 17:37 | 32.53116 | -83.13399 | 27473 ft | 373 kts | 310° |
| 2026-05-07 17:37 | 32.53472 | -83.13767 | 27393 ft | 372 kts | 310° |
| 2026-05-07 17:38 | 32.54535 | -83.14864 | 27120 ft | 369 kts | 310° |
| 2026-05-07 17:38 | 32.56462 | -83.16853 | 26630 ft | 365 kts | 310° |
| 2026-05-07 17:38 | 32.58344 | -83.18800 | 26150 ft | 361 kts | 310° |
| 2026-05-07 17:39 | 32.60231 | -83.20753 | 25683 ft | 356 kts | 310° |
| 2026-05-07 17:39 | 32.62088 | -83.22680 | 25197 ft | 353 kts | 309° |
| 2026-05-07 17:39 | 32.63927 | -83.24591 | 24740 ft | 350 kts | 309° |
| 2026-05-07 17:39 | 32.65755 | -83.26489 | 24277 ft | 347 kts | 309° |
| 2026-05-07 17:40 | 32.67565 | -83.28369 | 23820 ft | 344 kts | 309° |
| 2026-05-07 17:40 | 32.69354 | -83.30227 | 23333 ft | 340 kts | 309° |
| 2026-05-07 17:40 | 32.71099 | -83.32043 | 22872 ft | 335 kts | 309° |
| 2026-05-07 17:40 | 32.72843 | -83.33857 | 22434 ft | 331 kts | 309° |
| 2026-05-07 17:41 | 32.74566 | -83.35653 | 21990 ft | 328 kts | 309° |
| 2026-05-07 17:41 | 32.76273 | -83.37431 | 21560 ft | 325 kts | 309° |
| 2026-05-07 17:41 | 32.77966 | -83.39195 | 21130 ft | 322 kts | 309° |
| 2026-05-07 17:41 | 32.79639 | -83.40939 | 20708 ft | 318 kts | 309° |
| 2026-05-07 17:42 | 32.81294 | -83.42667 | 20293 ft | 314 kts | 309° |
| 2026-05-07 17:42 | 32.82931 | -83.44376 | 19892 ft | 310 kts | 309° |
| 2026-05-07 17:42 | 32.84544 | -83.46061 | 19487 ft | 307 kts | 309° |
| 2026-05-07 17:42 | 32.86147 | -83.47737 | 19088 ft | 305 kts | 309° |
| 2026-05-07 17:43 | 32.87732 | -83.49394 | 18693 ft | 302 kts | 309° |
| 2026-05-07 17:43 | 32.89306 | -83.51041 | 18285 ft | 300 kts | 309° |
| 2026-05-07 17:43 | 32.90868 | -83.52677 | 17854 ft | 298 kts | 309° |
| 2026-05-07 17:43 | 32.92432 | -83.54316 | 17453 ft | 298 kts | 308° |
| 2026-05-07 17:44 | 32.93977 | -83.55935 | 17066 ft | 296 kts | 308° |
| 2026-05-07 17:44 | 32.95518 | -83.57548 | 16684 ft | 294 kts | 308° |
| 2026-05-07 17:44 | 32.97053 | -83.59153 | 16288 ft | 293 kts | 309° |
| 2026-05-07 17:44 | 32.98581 | -83.60755 | 15893 ft | 292 kts | 309° |
| 2026-05-07 17:45 | 33.00079 | -83.62322 | 15518 ft | 289 kts | 309° |
| 2026-05-07 17:45 | 33.01577 | -83.63891 | 15113 ft | 283 kts | 309° |
| 2026-05-07 17:45 | 33.03052 | -83.65440 | 14736 ft | 282 kts | 309° |
| 2026-05-07 17:45 | 33.04523 | -83.66987 | 14374 ft | 282 kts | 309° |
| 2026-05-07 17:46 | 33.05989 | -83.68525 | 13996 ft | 280 kts | 310° |
| 2026-05-07 17:46 | 33.07455 | -83.70065 | 13619 ft | 279 kts | 310° |
| 2026-05-07 17:46 | 33.08918 | -83.71602 | 13230 ft | 280 kts | 310° |
| 2026-05-07 17:46 | 33.10368 | -83.73123 | 12862 ft | 276 kts | 310° |
| 2026-05-07 17:47 | 33.11785 | -83.74608 | 12491 ft | 264 kts | 310° |
| 2026-05-07 17:47 | 33.13133 | -83.76020 | 12149 ft | 250 kts | 310° |
| 2026-05-07 17:47 | 33.14437 | -83.77405 | 11846 ft | 259 kts | 310° |
| 2026-05-07 17:47 | 33.15776 | -83.78827 | 11497 ft | 257 kts | 310° |
| 2026-05-07 17:48 | 33.17106 | -83.80226 | 11158 ft | 253 kts | 310° |
| 2026-05-07 17:48 | 33.18430 | -83.81625 | 10836 ft | 255 kts | 310° |
| 2026-05-07 17:48 | 33.19709 | -83.83061 | 10492 ft | 251 kts | 307° |
| 2026-05-07 17:48 | 33.20942 | -83.84536 | 10157 ft | 250 kts | 307° |
| 2026-05-07 17:49 | 33.22180 | -83.86011 | 9832 ft | 252 kts | 308° |
| 2026-05-07 17:49 | 33.23424 | -83.87490 | 9479 ft | 253 kts | 308° |
| 2026-05-07 17:49 | 33.24675 | -83.88965 | 9195 ft | 249 kts | 310° |
| 2026-05-07 17:49 | 33.26069 | -83.90230 | 9125 ft | 255 kts | 319° |
| 2026-05-07 17:50 | 33.27560 | -83.91367 | 8857 ft | 252 kts | 319° |
| 2026-05-07 17:50 | 33.28994 | -83.92521 | 8598 ft | 244 kts | 317° |
| 2026-05-07 17:50 | 33.30370 | -83.93699 | 8343 ft | 244 kts | 316° |
| 2026-05-07 17:50 | 33.31751 | -83.94879 | 8115 ft | 243 kts | 317° |
| 2026-05-07 17:51 | 33.33135 | -83.96042 | 7871 ft | 243 kts | 317° |
| 2026-05-07 17:51 | 33.34516 | -83.97199 | 7635 ft | 242 kts | 317° |
| 2026-05-07 17:51 | 33.35898 | -83.98363 | 7431 ft | 246 kts | 317° |
| 2026-05-07 17:51 | 33.37273 | -83.99526 | 7222 ft | 246 kts | 317° |
| 2026-05-07 17:52 | 33.38678 | -84.00725 | 7004 ft | 248 kts | 318° |
| 2026-05-07 17:52 | 33.40093 | -84.01905 | 6818 ft | 247 kts | 319° |
| 2026-05-07 17:52 | 33.41497 | -84.03078 | 6610 ft | 245 kts | 319° |
| 2026-05-07 17:52 | 33.42892 | -84.04256 | 6443 ft | 246 kts | 319° |
| 2026-05-07 17:53 | 33.44290 | -84.05439 | 6251 ft | 245 kts | 319° |
| 2026-05-07 17:53 | 33.45678 | -84.06611 | 6050 ft | 242 kts | 319° |
| 2026-05-07 17:53 | 33.47000 | -84.07718 | 5868 ft | 219 kts | 319° |
| 2026-05-07 17:53 | 33.48258 | -84.08785 | 5689 ft | 223 kts | 318° |
| 2026-05-07 17:54 | 33.49514 | -84.09854 | 5490 ft | 222 kts | 319° |
| 2026-05-07 17:54 | 33.50777 | -84.10922 | 5286 ft | 222 kts | 319° |
| 2026-05-07 17:54 | 33.52045 | -84.11994 | 5109 ft | 225 kts | 319° |
| 2026-05-07 17:54 | 33.53317 | -84.13071 | 4947 ft | 224 kts | 319° |
| 2026-05-07 17:55 | 33.54588 | -84.14144 | 4799 ft | 223 kts | 319° |
| 2026-05-07 17:55 | 33.55423 | -84.14853 | 4683 ft | 221 kts | 320° |
| 2026-05-07 17:55 | 33.56678 | -84.15916 | 4504 ft | 222 kts | 320° |
| 2026-05-07 17:55 | 33.57943 | -84.16992 | 4324 ft | 224 kts | 321° |
| 2026-05-07 17:56 | 33.59216 | -84.18069 | 4157 ft | 225 kts | 321° |
| 2026-05-07 17:56 | 33.60480 | -84.19138 | 3987 ft | 221 kts | 321° |
| 2026-05-07 17:56 | 33.61738 | -84.20206 | 3962 ft | 223 kts | 320° |
| 2026-05-07 17:56 | 33.62790 | -84.21501 | 3963 ft | 215 kts | 295° |
| 2026-05-07 17:57 | 33.63133 | -84.23208 | 3932 ft | 202 kts | 274° |
| 2026-05-07 17:57 | 33.63174 | -84.24796 | 3709 ft | 180 kts | 271° |
| 2026-05-07 17:57 | 33.63178 | -84.26237 | 3497 ft | 173 kts | 270° |
| 2026-05-07 17:57 | 33.63177 | -84.27668 | 3279 ft | 175 kts | 271° |
| 2026-05-07 17:58 | 33.63178 | -84.29102 | 3038 ft | 163 kts | 270° |
| 2026-05-07 17:58 | 33.63176 | -84.30405 | 2840 ft | 152 kts | 271° |
| 2026-05-07 17:58 | 33.63172 | -84.31667 | 2656 ft | 151 kts | 272° |
| 2026-05-07 17:58 | 33.63184 | -84.32888 | 2458 ft | 140 kts | 270° |
| 2026-05-07 17:59 | 33.63182 | -84.34047 | 2289 ft | 138 kts | 271° |
| 2026-05-07 17:59 | 33.63179 | -84.35188 | 2096 ft | 134 kts | 271° |
| 2026-05-07 17:59 | 33.63184 | -84.36307 | 1929 ft | 134 kts | 273° |
| 2026-05-07 17:59 | 33.63182 | -84.37426 | 1759 ft | 134 kts | 273° |
| 2026-05-07 18:00 | 33.63184 | -84.38534 | 1607 ft | 130 kts | 271° |
| 2026-05-07 18:00 | 33.63188 | -84.39685 | 1494 ft | 139 kts | 276° |
| 2026-05-07 18:00 | 33.63185 | -84.40794 | 1317 ft | 133 kts | 272° |
| 2026-05-07 18:00 | 33.63178 | -84.41885 | 1101 ft | 130 kts | 274° |
| 2026-05-07 18:01 | 33.63180 | -84.42857 | 1046 ft | 90 kts | 270° |
| 2026-05-07 18:01 | 33.63181 | -84.43283 | 1047 ft | 25 kts | 271° |
| 2026-05-07 18:01 | 33.63156 | -84.43414 | 1027 ft | 10 kts | 215° |
| 2026-05-07 18:01 | 33.63088 | -84.43410 | 1021 ft | 12 kts | 146° |
| 2026-05-07 18:02 | 33.62996 | -84.43245 | 1046 ft | 2 kts | 94° |
| 2026-05-07 18:02 | 33.63003 | -84.43232 | 1046 ft | 4 kts | 49° |
| 2026-05-07 18:02 | 33.63064 | -84.43209 | 1046 ft | 3 kts | 340° |
| 2026-05-07 18:03 | 33.63070 | -84.43216 | 1046 ft | 2 kts | 321° |
| 2026-05-07 18:03 | 33.63094 | -84.43257 | 1046 ft | 2 kts | 269° |
| 2026-05-07 18:03 | 33.63085 | -84.43269 | 1046 ft | 3 kts | 223° |
| 2026-05-07 18:03 | 33.63054 | -84.43271 | 1046 ft | 5 kts | 162° |
| 2026-05-07 18:04 | 33.63045 | -84.43251 | 1046 ft | 8 kts | 104° |
| 2026-05-07 18:04 | 33.63068 | -84.43109 | 1046 ft | 19 kts | 78° |
| 2026-05-07 18:04 | 33.63067 | -84.42963 | 1046 ft | 12 kts | 110° |
| 2026-05-07 18:04 | 33.63013 | -84.42922 | 1046 ft | 9 kts | 166° |
| 2026-05-07 18:05 | 33.62976 | -84.42889 | 1045 ft | 10 kts | 132° |
| 2026-05-07 18:05 | 33.62887 | -84.42846 | 1045 ft | 19 kts | 175° |
| 2026-05-07 18:05 | 33.62746 | -84.42845 | 1045 ft | 22 kts | 181° |
| 2026-05-07 18:05 | 33.62683 | -84.42857 | 1045 ft | 3 kts | 224° |
| 2026-05-07 18:06 | 33.62675 | -84.42882 | 1045 ft | 4 kts | 261° |
| 2026-05-07 18:06 | 33.62675 | -84.42927 | 1045 ft | 6 kts | 270° |
| 2026-05-07 18:06 | 33.62675 | -84.42953 | 1045 ft | 0 kts | 270° |